Time;durP1;ratioP1;P1;durP2;ratioP2;P2;SDS_P1;SDS_P2;PMS_P1;PMS_P2;Temp;Humidity;BMP_temperature;BMP_pressure;BME280_temperature;BME280_humidity;BME280_pressure;Samples;Min_cycle;Max_cycle;Signal;HPM_P1;HPM_P2
2023/07/06 00:01:22;;;;;;;6.30;5.57;;;;;;;25.91;48.64;99184.38;5091853;28;20024;-76
2023/07/06 00:03:49;;;;;;;6.95;5.10;;;;;;;25.19;48.86;99071.81;5091679;28;20028;-75
2023/07/06 00:06:15;;;;;;;6.22;5.03;;;;;;;25.76;48.79;99173.72;5091522;28;20057;-76
2023/07/06 00:08:40;;;;;;;6.70;5.40;;;;;;;25.43;48.87;99117.81;5091416;28;20104;-76
2023/07/06 00:11:06;;;;;;;5.28;4.78;;;;;;;25.28;49.02;99094.44;5091486;28;20485;-75
2023/07/06 00:13:32;;;;;;;8.10;4.93;;;;;;;25.63;48.93;99150.03;5091428;28;20035;-76
2023/07/06 00:16:02;;;;;;;8.93;6.10;;;;;;;25.86;49.06;99189.84;5094665;28;20030;-76
2023/07/06 00:18:28;;;;;;;6.15;5.18;;;;;;;25.53;49.38;99148.25;5094310;28;20032;-75
2023/07/06 00:20:54;;;;;;;6.25;5.65;;;;;;;25.23;49.57;99135.00;5094284;28;20028;-75
2023/07/06 00:23:20;;;;;;;6.20;5.60;;;;;;;25.55;49.98;99175.78;5095486;28;20110;-75
2023/07/06 00:25:45;;;;;;;6.53;5.93;;;;;;;25.36;50.00;99147.88;5094154;28;20041;-75
2023/07/06 00:28:11;;;;;;;7.95;6.10;;;;;;;24.89;50.22;99072.84;5095340;28;20028;-76
2023/07/06 00:33:13;;;;;;;6.93;5.05;;;;;;;25.31;50.75;99162.22;5095684;28;20541;-75
2023/07/06 00:35:42;;;;;;;6.88;5.90;;;;;;;25.50;50.52;99193.97;5095564;28;20027;-75
2023/07/06 00:38:14;;;;;;;6.72;5.90;;;;;;;25.50;50.90;99193.97;5095285;28;20113;-75
2023/07/06 00:40:50;;;;;;;6.40;5.80;;;;;;;25.52;51.21;99189.88;5095220;28;20501;-75
2023/07/06 00:43:26;;;;;;;7.35;5.88;;;;;;;25.23;51.26;99154.72;5095137;28;20028;-75
2023/07/06 00:45:55;;;;;;;6.78;5.70;;;;;;;25.40;50.96;99196.75;5095222;28;20020;-75
2023/07/06 00:48:27;;;;;;;6.78;6.10;;;;;;;25.43;51.18;99193.50;5095018;28;20027;-76
2023/07/06 00:51:06;;;;;;;6.65;5.82;;;;;;;25.31;51.14;99189.25;5094942;28;20028;-75
2023/07/06 00:53:38;;;;;;;6.78;6.10;;;;;;;25.37;51.12;99178.41;5093685;28;20496;-76
2023/07/06 00:56:06;;;;;;;6.70;6.05;;;;;;;24.38;51.22;99033.53;5093671;28;20024;-74
2023/07/06 00:58:45;;;;;;;6.75;6.05;;;;;;;25.40;51.35;99180.53;5093434;28;20051;-76
2023/07/06 01:01:12;;;;;;;6.30;5.70;;;;;;;25.34;51.33;99177.88;5094984;28;20032;-77
2023/07/06 01:03:46;;;;;;;8.65;6.25;;;;;;;25.25;51.31;99157.94;5094742;28;20061;-74
2023/07/06 01:06:39;;;;;;;6.55;5.90;;;;;;;25.27;51.21;99176.59;5094881;28;20020;-77
2023/07/06 01:09:05;;;;;;;6.15;5.55;;;;;;;25.30;51.33;99167.94;5088109;28;20038;-76
2023/07/06 01:11:34;;;;;;;8.60;5.43;;;;;;;25.38;51.38;99180.03;5094740;28;20397;-75
2023/07/06 01:14:00;;;;;;;6.78;5.90;;;;;;;25.30;51.42;99163.31;5094415;28;20050;-76
2023/07/06 01:16:54;;;;;;;7.05;6.15;;;;;;;25.39;51.15;99177.03;5094589;28;20062;-75
2023/07/06 01:19:44;;;;;;;6.38;5.78;;;;;;;25.43;51.32;99180.78;5087259;28;20036;-76
2023/07/06 01:22:35;;;;;;;6.63;5.97;;;;;;;25.48;50.91;99177.22;5094313;28;20035;-76
2023/07/06 01:25:02;;;;;;;6.22;5.57;;;;;;;25.49;51.08;99184.25;5094673;28;20031;-75
2023/07/06 01:27:45;;;;;;;6.38;5.70;;;;;;;25.56;50.78;99180.13;5093192;28;20408;-76
2023/07/06 01:30:24;;;;;;;7.28;6.18;;;;;;;25.53;50.69;99188.78;5094424;28;20035;-77
2023/07/06 01:32:58;;;;;;;8.52;6.22;;;;;;;25.50;50.96;99183.97;5094371;28;20115;-76
2023/07/06 01:35:31;;;;;;;6.65;5.75;;;;;;;25.30;50.88;99174.13;5093096;28;20477;-76
2023/07/06 01:37:57;;;;;;;7.95;5.60;;;;;;;25.34;50.81;99171.66;5094455;28;20103;-78
2023/07/06 01:40:23;;;;;;;5.90;5.30;;;;;;;25.43;50.93;99205.09;5094185;28;20506;-77
2023/07/06 01:42:48;;;;;;;6.07;5.13;;;;;;;25.20;50.82;99166.09;5095718;28;20104;-76
2023/07/06 01:45:17;;;;;;;6.18;5.57;;;;;;;24.38;50.54;99041.63;5098282;28;20114;-76
2023/07/06 01:47:55;;;;;;;6.40;5.70;;;;;;;25.40;50.85;99204.88;5096448;28;20105;-77
2023/07/06 01:50:30;;;;;;;6.43;5.80;;;;;;;25.38;50.67;99188.94;5100123;28;20499;-76
2023/07/06 01:53:12;;;;;;;6.38;5.78;;;;;;;25.24;51.21;99177.94;5094237;28;20042;-76
2023/07/06 01:55:53;;;;;;;6.13;5.53;;;;;;;24.75;51.26;99128.59;5094061;28;20097;-76
2023/07/06 01:58:33;;;;;;;6.18;5.43;;;;;;;25.21;51.36;99194.72;5093737;28;20583;-76
2023/07/06 02:01:13;;;;;;;6.90;5.60;;;;;;;25.12;51.71;99196.41;5093627;28;20028;-77
2023/07/06 02:03:41;;;;;;;6.18;5.63;;;;;;;25.14;51.44;99199.63;5093642;28;20024;-76
2023/07/06 02:06:08;;;;;;;6.53;5.47;;;;;;;25.23;51.59;99205.25;5093740;28;20019;-76
2023/07/06 02:08:41;;;;;;;7.15;6.45;;;;;;;25.24;51.76;99202.25;5093811;28;20077;-76
2023/07/06 02:11:09;;;;;;;7.28;5.95;;;;;;;24.69;51.64;99123.22;5094745;28;20096;-77
2023/07/06 02:13:35;;;;;;;6.80;6.20;;;;;;;25.29;51.82;99217.66;5095173;28;20219;-76
2023/07/06 02:16:04;;;;;;;7.35;6.50;;;;;;;24.90;51.60;99152.78;5093842;28;20020;-77
2023/07/06 02:18:30;;;;;;;8.48;6.47;;;;;;;25.31;51.87;99221.69;5093587;28;20028;-76
2023/07/06 02:20:57;;;;;;;7.00;6.30;;;;;;;25.17;51.86;99203.66;5093575;28;20040;-76
2023/07/06 02:23:23;;;;;;;7.60;6.15;;;;;;;25.22;52.31;99217.94;5093553;28;20024;-77
2023/07/06 02:25:48;;;;;;;7.53;6.68;;;;;;;25.15;52.23;99209.34;5093287;28;20462;-76
2023/07/06 02:28:14;;;;;;;8.10;6.55;;;;;;;24.95;52.16;99188.66;5093097;28;20028;-76
2023/07/06 02:30:40;;;;;;;7.20;6.47;;;;;;;25.12;52.52;99211.81;5093322;28;20399;-78
2023/07/06 02:33:06;;;;;;;8.60;6.20;;;;;;;25.06;52.39;99194.84;5091868;28;20032;-75
2023/07/06 02:35:32;;;;;;;7.95;6.68;;;;;;;25.15;52.73;99201.25;5093008;28;20115;-74
2023/07/06 02:37:58;;;;;;;7.45;6.75;;;;;;;25.17;52.78;99199.06;5092599;28;20101;-76
2023/07/06 02:40:23;;;;;;;6.85;5.97;;;;;;;25.19;52.71;99196.91;5093130;28;20485;-76
2023/07/06 02:42:49;;;;;;;7.93;6.47;;;;;;;24.56;52.79;99099.56;5093216;28;20032;-76
2023/07/06 02:45:14;;;;;;;6.88;6.28;;;;;;;25.16;52.76;99191.25;5093115;28;20020;-76
2023/07/06 02:47:41;;;;;;;7.57;6.53;;;;;;;25.17;52.84;99190.16;5092885;28;20428;-76
2023/07/06 02:50:11;;;;;;;7.60;6.60;;;;;;;24.91;53.23;99157.09;5092864;28;20412;-76
2023/07/06 02:52:37;;;;;;;7.20;6.38;;;;;;;25.11;53.36;99202.09;5092819;28;20519;-76
2023/07/06 02:55:03;;;;;;;7.70;7.00;;;;;;;25.02;53.47;99189.19;5092735;28;20557;-76
2023/07/06 02:57:28;;;;;;;8.30;6.95;;;;;;;25.09;53.31;99212.38;5092912;28;20024;-75
2023/07/06 02:59:56;;;;;;;7.20;6.50;;;;;;;25.07;53.50;99198.34;5092833;28;20052;-76
2023/07/06 03:02:22;;;;;;;8.55;7.45;;;;;;;24.94;53.71;99188.94;5092680;28;20033;-77
2023/07/06 03:04:47;;;;;;;7.10;6.40;;;;;;;25.00;53.72;99206.75;5092546;28;20410;-76
2023/07/06 03:07:13;;;;;;;7.63;6.68;;;;;;;24.99;54.02;99199.75;5092572;28;20032;-76
2023/07/06 03:09:38;;;;;;;7.05;6.45;;;;;;;25.03;54.22;99203.50;5091037;28;20031;-76
2023/07/06 03:12:05;;;;;;;7.57;6.40;;;;;;;24.97;54.55;99197.31;5092219;28;20024;-76
2023/07/06 03:14:32;;;;;;;7.38;6.60;;;;;;;25.00;54.43;99195.97;5092366;28;20031;-75
2023/07/06 03:16:58;;;;;;;8.18;7.38;;;;;;;24.97;54.55;99186.53;5092294;28;20031;-75
2023/07/06 03:19:23;;;;;;;7.40;6.45;;;;;;;24.90;54.76;99177.91;5092131;28;20028;-76
2023/07/06 03:21:49;;;;;;;7.32;6.63;;;;;;;24.93;54.93;99203.53;5092176;28;20564;-76
2023/07/06 03:24:15;;;;;;;8.00;6.95;;;;;;;24.93;54.83;99192.75;5092076;28;20024;-76
2023/07/06 03:26:41;;;;;;;9.55;7.25;;;;;;;24.90;54.89;99199.50;5091835;28;20027;-77
2023/07/06 03:29:09;;;;;;;8.38;6.85;;;;;;;24.91;54.50;99200.31;5091905;28;20546;-76
2023/07/06 03:31:35;;;;;;;9.68;7.15;;;;;;;24.91;55.08;99201.13;5092201;28;20032;-76
2023/07/06 03:34:01;;;;;;;7.00;6.40;;;;;;;24.88;54.55;99190.88;5092145;28;20466;-76
2023/07/06 03:36:27;;;;;;;7.93;7.15;;;;;;;24.62;54.80;99138.94;5091874;28;20461;-75
2023/07/06 03:38:52;;;;;;;8.95;6.80;;;;;;;24.97;54.75;99188.38;5091733;28;20067;-76
2023/07/06 03:41:18;;;;;;;7.55;6.80;;;;;;;24.93;55.05;99190.84;5091698;28;20072;-75
2023/07/06 03:43:44;;;;;;;7.60;6.80;;;;;;;24.90;54.80;99196.81;5091752;28;20420;-75
2023/07/06 03:46:10;;;;;;;7.53;6.38;;;;;;;24.71;54.83;99169.66;5092055;28;20024;-75
2023/07/06 03:48:36;;;;;;;8.05;7.25;;;;;;;24.86;54.98;99187.66;5091875;28;20031;-76
2023/07/06 03:51:07;;;;;;;8.25;6.72;;;;;;;24.66;54.75;99150.78;5091366;28;20051;-76
2023/07/06 03:53:35;;;;;;;7.75;7.00;;;;;;;24.67;54.51;99146.19;5091898;28;20398;-77
2023/07/06 03:56:01;;;;;;;8.05;6.50;;;;;;;25.02;54.52;99197.28;5091798;28;20032;-76
2023/07/06 03:58:27;;;;;;;7.75;6.60;;;;;;;24.87;54.68;99164.16;5091399;28;20527;-76
2023/07/06 04:00:52;;;;;;;9.25;7.05;;;;;;;24.92;54.61;99178.44;5091687;28;20023;-77
2023/07/06 04:03:18;;;;;;;10.15;7.20;;;;;;;24.69;54.40;99134.03;5091773;28;20103;-75
2023/07/06 04:05:47;;;;;;;7.75;7.00;;;;;;;24.95;54.32;99180.56;5091716;28;20032;-76
2023/07/06 04:08:32;;;;;;;8.63;6.78;;;;;;;24.98;54.48;99195.44;5092007;28;20558;-76
2023/07/06 04:10:57;;;;;;;11.30;6.97;;;;;;;24.54;54.55;99119.81;5091578;28;20035;-76
2023/07/06 04:13:22;;;;;;;8.50;6.60;;;;;;;25.02;54.20;99201.88;5091521;28;20042;-76
2023/07/06 04:15:49;;;;;;;7.10;6.35;;;;;;;24.59;54.29;99122.50;5091468;28;20092;-75
2023/07/06 04:18:17;;;;;;;12.98;7.38;;;;;;;24.38;54.39;99084.81;5091387;28;20042;-76
2023/07/06 04:20:44;;;;;;;7.22;6.18;;;;;;;25.08;54.47;99202.66;5091457;28;20028;-76
2023/07/06 04:23:09;;;;;;;7.80;7.00;;;;;;;24.85;54.44;99177.13;5091459;28;20036;-75
2023/07/06 04:25:36;;;;;;;10.90;6.95;;;;;;;25.04;54.75;99210.53;5091501;28;20433;-76
2023/07/06 04:28:13;;;;;;;9.48;7.28;;;;;;;25.03;54.51;99207.00;5091281;28;20034;-76
2023/07/06 04:30:41;;;;;;;14.00;7.60;;;;;;;25.02;54.86;99210.78;5091241;28;20062;-76
2023/07/06 04:33:11;;;;;;;9.18;7.53;;;;;;;25.05;54.63;99211.31;5091160;28;20024;-76
2023/07/06 04:35:36;;;;;;;9.57;7.13;;;;;;;24.90;54.73;99185.19;5091382;28;20051;-75
2023/07/06 04:38:03;;;;;;;8.88;7.70;;;;;;;24.82;54.87;99170.41;5091500;28;20059;-76
2023/07/06 04:40:29;;;;;;;8.25;7.00;;;;;;;25.10;54.62;99214.00;5091374;28;20420;-76
2023/07/06 04:42:55;;;;;;;7.82;7.03;;;;;;;24.90;54.45;99180.59;5091279;28;20028;-75
2023/07/06 04:45:24;;;;;;;10.23;7.32;;;;;;;25.24;54.59;99221.16;5090088;28;20024;-75
2023/07/06 04:47:51;;;;;;;8.23;7.45;;;;;;;25.20;54.42;99205.81;5092663;28;20063;-76
2023/07/06 04:50:22;;;;;;;8.95;7.00;;;;;;;25.27;54.57;99215.22;5092660;28;20028;-76
2023/07/06 04:52:53;;;;;;;8.90;7.05;;;;;;;25.22;54.64;99209.03;5091569;28;20077;-76
2023/07/06 04:55:23;;;;;;;10.70;7.72;;;;;;;25.18;54.70;99207.97;5091559;28;20032;-76
2023/07/06 04:57:54;;;;;;;9.60;7.88;;;;;;;25.29;54.80;99223.06;5091149;28;20056;-76
2023/07/06 05:00:24;;;;;;;8.00;7.30;;;;;;;25.28;54.61;99224.97;5091550;28;20107;-76
2023/07/06 05:02:51;;;;;;;8.65;7.75;;;;;;;25.29;54.56;99234.69;5095010;28;20032;-76
2023/07/06 05:05:20;;;;;;;10.27;7.68;;;;;;;25.30;54.61;99232.78;5094794;28;20032;-76
2023/07/06 05:07:46;;;;;;;9.18;7.82;;;;;;;25.31;54.59;99232.50;5095274;28;20031;-76
2023/07/06 05:10:13;;;;;;;8.93;7.55;;;;;;;25.33;54.79;99233.03;5098234;28;20053;-75
2023/07/06 05:12:39;;;;;;;7.53;6.80;;;;;;;25.23;55.11;99222.25;5098271;28;20168;-76
2023/07/06 05:15:06;;;;;;;12.82;8.15;;;;;;;24.84;54.86;99143.09;5094422;28;20077;-75
2023/07/06 05:17:32;;;;;;;8.93;7.82;;;;;;;25.46;55.07;99265.91;5094371;28;20110;-76
2023/07/06 05:19:58;;;;;;;9.50;7.72;;;;;;;25.49;55.01;99241.81;5094485;28;20568;-77
2023/07/06 05:22:25;;;;;;;9.57;8.55;;;;;;;25.29;54.93;99199.53;5094501;28;20036;-77
2023/07/06 05:24:50;;;;;;;11.77;7.57;;;;;;;25.59;55.24;99249.84;5094409;28;20081;-75
2023/07/06 05:27:16;;;;;;;9.77;7.80;;;;;;;25.24;55.03;99194.16;5094248;28;20024;-77
2023/07/06 05:29:41;;;;;;;8.98;7.43;;;;;;;25.41;54.88;99226.19;5094263;28;20020;-78
2023/07/06 05:32:08;;;;;;;8.57;7.78;;;;;;;24.97;55.16;99151.41;5092783;28;20052;-74
2023/07/06 05:34:34;;;;;;;7.95;7.15;;;;;;;25.62;55.20;99256.56;5094064;28;20413;-76
2023/07/06 05:37:00;;;;;;;10.85;8.57;;;;;;;24.66;54.90;99090.59;5094303;28;20022;-76
2023/07/06 05:39:26;;;;;;;8.80;7.93;;;;;;;25.39;55.04;99195.94;5094248;28;20024;-74
2023/07/06 05:41:51;;;;;;;10.55;9.35;;;;;;;25.64;54.75;99240.88;5093950;28;20561;-75
2023/07/06 05:44:16;;;;;;;9.48;8.57;;;;;;;25.70;54.81;99242.47;5093927;28;20095;-76
2023/07/06 05:46:42;;;;;;;9.63;8.63;;;;;;;25.71;54.89;99244.09;5086035;28;20078;-76
2023/07/06 05:49:07;;;;;;;9.40;8.32;;;;;;;25.45;54.84;99200.22;5074894;28;20070;-76
2023/07/06 05:51:33;;;;;;;11.32;9.05;;;;;;;25.69;54.46;99221.13;5073920;28;20154;-77
2023/07/06 05:53:58;;;;;;;9.90;7.45;;;;;;;25.46;54.54;99182.91;5072010;28;20029;-76
2023/07/06 05:56:24;;;;;;;14.30;9.82;;;;;;;25.75;54.71;99223.50;5073375;28;20016;-76
2023/07/06 05:58:51;;;;;;;12.00;10.90;;;;;;;25.29;54.55;99140.09;5073060;28;20044;-77
2023/07/06 06:01:19;;;;;;;11.45;8.98;;;;;;;25.95;54.11;99228.69;5072806;28;20044;-76
2023/07/06 06:03:45;;;;;;;12.00;10.75;;;;;;;26.05;54.09;99241.34;5053090;28;20025;-76
2023/07/06 06:06:11;;;;;;;9.85;8.82;;;;;;;25.96;54.02;99203.25;5053135;28;20032;-77
2023/07/06 06:08:37;;;;;;;10.32;8.13;;;;;;;26.20;54.01;99249.28;5066014;28;20083;-76
2023/07/06 06:11:03;;;;;;;10.88;9.73;;;;;;;26.24;53.94;99253.03;5077315;28;20142;-76
2023/07/06 06:13:30;;;;;;;9.82;8.13;;;;;;;26.30;53.84;99253.78;5072488;28;20107;-76
2023/07/06 06:15:55;;;;;;;11.50;9.65;;;;;;;26.19;53.74;99217.09;5073659;28;20490;-76
2023/07/06 06:18:21;;;;;;;12.32;11.18;;;;;;;26.45;53.54;99252.81;5092803;28;20613;-76
2023/07/06 06:20:48;;;;;;;10.05;9.07;;;;;;;26.52;53.37;99239.75;5071710;28;20089;-76
2023/07/06 06:23:15;;;;;;;9.70;8.77;;;;;;;26.47;53.39;99235.19;5071520;28;20024;-76
2023/07/06 06:25:41;;;;;;;14.23;11.38;;;;;;;26.62;53.13;99241.50;5072910;28;20028;-76
2023/07/06 06:28:09;;;;;;;11.65;9.80;;;;;;;26.69;53.00;99253.59;5071242;28;20130;-75
2023/07/06 06:30:40;;;;;;;8.73;7.88;;;;;;;26.69;52.81;99239.25;5074883;28;20413;-76
2023/07/06 06:33:06;;;;;;;7.90;7.10;;;;;;;26.70;52.19;99243.56;5052813;28;20032;-76
2023/07/06 06:35:33;;;;;;;8.27;7.47;;;;;;;26.78;51.83;99237.53;5052699;28;20543;-77
2023/07/06 06:37:59;;;;;;;10.32;9.20;;;;;;;26.74;51.85;99214.81;5066996;28;20032;-76
2023/07/06 06:40:25;;;;;;;10.90;9.50;;;;;;;26.97;51.59;99245.66;5081215;28;20120;-76
2023/07/06 06:42:51;;;;;;;10.25;7.88;;;;;;;26.98;51.47;99244.59;5089842;28;20028;-75
2023/07/06 06:45:18;;;;;;;9.75;6.85;;;;;;;26.96;50.54;99231.31;5072158;28;20024;-75
2023/07/06 06:47:44;;;;;;;8.18;7.22;;;;;;;27.02;50.29;99223.94;5078541;28;20023;-76
2023/07/06 06:50:14;;;;;;;8.48;7.57;;;;;;;26.45;50.21;99120.16;5080124;28;20031;-77
2023/07/06 06:52:40;;;;;;;8.40;7.60;;;;;;;27.16;50.00;99222.09;5070803;28;20028;-76
2023/07/06 06:55:06;;;;;;;9.30;7.55;;;;;;;27.34;49.72;99236.72;5072417;28;20394;-76
2023/07/06 06:57:32;;;;;;;8.77;7.85;;;;;;;27.29;49.36;99217.84;5079284;28;20027;-76
2023/07/06 06:59:59;;;;;;;7.18;6.47;;;;;;;26.92;48.27;99146.31;5082901;28;20021;-75
2023/07/06 07:02:25;;;;;;;8.73;5.80;;;;;;;27.44;48.08;99212.16;5072145;28;20055;-75
2023/07/06 07:04:50;;;;;;;8.13;6.88;;;;;;;27.54;48.03;99234.53;5072277;28;20115;-77
2023/07/06 07:07:16;;;;;;;8.88;8.07;;;;;;;27.48;48.05;99224.03;5079782;28;20008;-75
2023/07/06 07:09:44;;;;;;;9.30;8.40;;;;;;;27.59;47.97;99230.13;5072087;28;20024;-77
2023/07/06 07:12:10;;;;;;;7.50;6.80;;;;;;;27.65;47.90;99237.91;5072682;28;20020;-77
2023/07/06 07:14:36;;;;;;;12.20;8.88;;;;;;;27.69;47.42;99227.25;5070547;28;20421;-76
2023/07/06 07:17:02;;;;;;;9.15;8.25;;;;;;;26.82;47.55;99092.28;5070871;28;20081;-76
2023/07/06 07:19:28;;;;;;;7.47;6.68;;;;;;;27.77;47.28;99243.66;5068750;28;20440;-76
2023/07/06 07:21:53;;;;;;;8.95;8.10;;;;;;;27.74;47.50;99232.59;5071921;28;20029;-77
2023/07/06 07:24:19;;;;;;;8.10;6.85;;;;;;;27.85;47.38;99240.25;5070234;28;20025;-76
2023/07/06 07:26:48;;;;;;;8.18;7.38;;;;;;;27.88;47.41;99240.75;5072333;28;20032;-76
2023/07/06 07:29:14;;;;;;;8.48;7.20;;;;;;;27.70;47.68;99207.97;5071485;28;20047;-76
2023/07/06 07:31:41;;;;;;;8.25;6.80;;;;;;;27.95;47.55;99249.31;5072582;28;20107;-76
2023/07/06 07:34:07;;;;;;;7.32;6.63;;;;;;;27.90;47.28;99225.78;5071292;28;20520;-76
2023/07/06 07:36:32;;;;;;;8.32;7.53;;;;;;;27.74;46.87;99191.91;5072495;28;20020;-76
2023/07/06 07:38:58;;;;;;;8.18;6.53;;;;;;;28.03;46.48;99237.75;5080887;28;20026;-76
2023/07/06 07:41:24;;;;;;;10.70;7.97;;;;;;;27.79;46.25;99198.03;5071727;28;20029;-77
2023/07/06 07:43:49;;;;;;;8.10;7.38;;;;;;;28.07;46.06;99239.56;5070889;28;20028;-76
2023/07/06 07:46:17;;;;;;;7.72;6.95;;;;;;;28.21;45.81;99236.06;5072405;28;20596;-76
2023/07/06 07:48:46;;;;;;;7.72;6.53;;;;;;;28.22;45.73;99226.81;5074153;28;20126;-76
2023/07/06 07:51:21;;;;;;;10.38;7.35;;;;;;;27.77;45.65;99126.19;5071148;28;20017;-76
2023/07/06 07:53:47;;;;;;;7.75;5.80;;;;;;;28.57;45.13;99236.19;5070568;28;20092;-76
2023/07/06 07:56:15;;;;;;;7.07;5.60;;;;;;;28.60;43.79;99235.59;5071311;28;20486;-76
2023/07/06 07:58:42;;;;;;;7.78;5.80;;;;;;;28.78;43.83;99242.78;5083978;28;20040;-77
2023/07/06 08:01:14;;;;;;;8.40;6.35;;;;;;;28.86;43.49;99233.94;5083359;28;20028;-77
2023/07/06 08:03:39;;;;;;;10.93;5.72;;;;;;;28.87;43.68;99218.44;5071006;28;20028;-76
2023/07/06 08:06:08;;;;;;;7.22;6.43;;;;;;;29.03;43.46;99223.25;5080441;28;20027;-76
2023/07/06 08:08:35;;;;;;;7.07;6.13;;;;;;;29.12;43.23;99231.47;5076507;28;20500;-75
2023/07/06 08:11:09;;;;;;;6.90;6.25;;;;;;;29.12;43.14;99206.19;5077356;28;20028;-77
2023/07/06 08:13:35;;;;;;;7.47;6.68;;;;;;;29.21;42.61;99224.19;5059891;28;20074;-76
2023/07/06 08:16:01;;;;;;;8.20;7.45;;;;;;;29.31;42.64;99226.66;5090446;28;20023;-77
2023/07/06 08:18:28;;;;;;;8.25;6.72;;;;;;;29.04;42.70;99170.50;5089926;28;20024;-77
2023/07/06 08:20:54;;;;;;;7.82;6.85;;;;;;;28.61;42.46;99093.22;5075547;28;20024;-77
2023/07/06 08:23:21;;;;;;;6.65;6.03;;;;;;;29.46;42.27;99217.34;5070995;28;20050;-77
2023/07/06 08:25:51;;;;;;;7.20;5.93;;;;;;;29.31;42.41;99183.16;5070211;28;20063;-77
2023/07/06 08:28:23;;;;;;;8.90;7.80;;;;;;;29.61;42.39;99227.84;5069983;28;20024;-76
2023/07/06 08:30:49;;;;;;;7.20;6.50;;;;;;;29.72;42.01;99221.03;5070197;28;20417;-76
2023/07/06 08:33:15;;;;;;;8.27;6.30;;;;;;;29.62;41.66;99190.56;5070866;28;20028;-76
2023/07/06 08:35:45;;;;;;;8.25;6.68;;;;;;;29.72;41.23;99203.91;5071470;28;20059;-77
2023/07/06 08:38:11;;;;;;;10.40;6.90;;;;;;;29.68;41.55;99184.66;5073730;28;20020;-76
2023/07/06 08:40:37;;;;;;;6.82;6.20;;;;;;;29.84;41.25;99192.44;5075243;28;20102;-76
2023/07/06 08:43:06;;;;;;;8.63;6.70;;;;;;;29.68;41.37;99168.34;5074321;28;20107;-77
2023/07/06 08:45:40;;;;;;;8.05;6.65;;;;;;;30.01;41.08;99209.69;5089682;28;20035;-77
2023/07/06 08:48:09;;;;;;;7.85;6.30;;;;;;;30.15;40.56;99211.50;5082083;28;20048;-76
2023/07/06 08:50:36;;;;;;;9.88;6.78;;;;;;;29.76;40.54;99155.91;5073060;28;20520;-77
2023/07/06 08:53:09;;;;;;;12.55;10.02;;;;;;;30.27;40.51;99207.06;5074587;28;20020;-76
2023/07/06 08:55:36;;;;;;;6.95;6.25;;;;;;;30.22;40.22;99187.31;5094754;28;20495;-78
2023/07/06 08:58:03;;;;;;;6.68;5.97;;;;;;;30.08;39.96;99152.06;5094546;28;20424;-76
2023/07/06 09:00:31;;;;;;;6.18;5.60;;;;;;;30.12;40.01;99155.75;5094401;28;20020;-77
2023/07/06 09:03:05;;;;;;;9.02;6.13;;;;;;;30.46;39.98;99190.44;5085549;28;20077;-76
2023/07/06 09:05:33;;;;;;;8.23;6.78;;;;;;;29.85;39.52;99077.81;5088363;28;20386;-76
2023/07/06 09:07:58;;;;;;;8.73;6.15;;;;;;;30.28;39.09;99129.66;5074779;28;20154;-75
2023/07/06 09:10:28;;;;;;;7.95;7.05;;;;;;;30.44;39.05;99149.06;5074438;28;20095;-77
2023/07/06 09:12:56;;;;;;;7.93;6.50;;;;;;;31.04;38.77;99205.59;5076150;28;20024;-77
2023/07/06 09:15:30;;;;;;;8.77;7.30;;;;;;;31.21;38.06;99202.91;5074157;28;20025;-76
2023/07/06 09:17:59;;;;;;;6.85;5.50;;;;;;;31.34;37.82;99198.41;5078408;28;20042;-78
2023/07/06 09:20:26;;;;;;;8.80;6.18;;;;;;;31.44;37.29;99198.06;5085370;28;20071;-76
2023/07/06 09:22:52;;;;;;;7.25;6.38;;;;;;;31.59;37.13;99197.53;5075882;28;20024;-77
2023/07/06 09:25:27;;;;;;;7.38;5.75;;;;;;;31.78;36.58;99201.84;5073728;28;20039;-76
2023/07/06 09:27:55;;;;;;;6.72;6.13;;;;;;;31.58;36.64;99135.09;5067720;28;20024;-75
2023/07/06 09:30:39;;;;;;;11.88;9.25;;;;;;;31.92;35.64;99158.75;5094267;28;20016;-76
2023/07/06 09:33:25;;;;;;;8.20;7.22;;;;;;;32.05;35.93;99143.28;5079513;28;20020;-76
2023/07/06 09:35:54;;;;;;;5.40;5.00;;;;;;;32.55;35.76;99190.56;5080658;28;20028;-77
2023/07/06 09:38:20;;;;;;;7.63;6.88;;;;;;;32.77;35.83;99189.50;5073342;28;20047;-76
2023/07/06 09:40:46;;;;;;;8.95;6.55;;;;;;;32.96;35.46;99190.97;5073051;28;20402;-76
2023/07/06 09:43:29;;;;;;;7.50;6.28;;;;;;;33.15;33.81;99194.00;5074034;28;20048;-76
2023/07/06 09:45:56;;;;;;;6.32;5.25;;;;;;;33.18;34.09;99176.91;5091528;28;20039;-77
2023/07/06 09:48:37;;;;;;;6.40;5.60;;;;;;;33.34;33.45;99188.06;5083234;28;20025;-77
2023/07/06 09:51:08;;;;;;;;;;;;;;;33.26;33.94;99181.50;5071833;28;20081;-77
2023/07/06 09:53:38;;;;;;;;;;;;;;;33.33;32.90;99170.84;5073998;28;19908;-76
2023/07/06 09:56:10;;;;;;;6.93;6.32;;;;;;;33.65;33.13;99171.97;5085019;28;19917;-76
2023/07/06 09:58:35;;;;;;;7.13;4.90;;;;;;;33.80;32.66;99178.72;5093245;28;20040;-77
2023/07/06 10:01:14;;;;;;;6.95;6.25;;;;;;;33.31;32.05;99088.28;5079250;28;20085;-76
2023/07/06 10:04:10;;;;;;;7.43;6.10;;;;;;;34.05;30.83;99166.66;5075514;28;20028;-76
2023/07/06 10:06:47;;;;;;;7.57;6.60;;;;;;;34.06;30.46;99167.44;5073204;28;20112;-78
2023/07/06 10:09:22;;;;;;;7.63;4.85;;;;;;;34.08;30.62;99163.22;5074957;28;20023;-77
2023/07/06 10:11:53;;;;;;;7.68;5.22;;;;;;;34.11;31.01;99135.13;5068864;28;20052;-77
2023/07/06 10:14:20;;;;;;;;;;;;;;;34.32;31.15;99165.19;5073540;28;20086;-75
2023/07/06 10:16:48;;;;;;;5.63;4.93;;;;;;;34.49;30.98;99161.41;5073031;28;20314;-77
2023/07/06 10:19:23;;;;;;;5.13;4.53;;;;;;;34.73;30.07;99153.09;5072958;28;20024;-76
2023/07/06 10:21:51;;;;;;;6.85;4.82;;;;;;;34.91;30.32;99159.13;5071936;28;20099;-76
2023/07/06 10:25:00;;;;;;;7.25;4.50;;;;;;;34.84;29.28;99112.28;5072949;28;20055;-77
2023/07/06 10:27:31;;;;;;;5.55;5.03;;;;;;;35.19;29.47;99137.19;5085845;28;20103;-77
2023/07/06 10:30:02;;;;;;;7.82;5.55;;;;;;;35.35;29.19;99140.78;5083168;28;20023;-76
2023/07/06 10:32:34;;;;;;;6.82;6.25;;;;;;;35.40;29.51;99122.44;5072983;28;20029;-75
2023/07/06 10:35:25;;;;;;;7.22;6.57;;;;;;;35.77;29.67;99134.00;5072680;28;20028;-76
2023/07/06 10:37:51;;;;;;;6.97;4.78;;;;;;;35.62;28.80;99092.41;5089519;28;20565;-76
2023/07/06 10:40:24;;;;;;;6.70;4.53;;;;;;;35.89;28.50;99134.72;5092881;28;20020;-77
2023/07/06 10:43:17;;;;;;;5.00;4.50;;;;;;;35.97;28.62;99136.47;5081143;28;20498;-77
2023/07/06 10:45:59;;;;;;;8.13;5.05;;;;;;;36.02;28.27;99127.16;5082939;28;20028;-77
2023/07/06 10:48:24;;;;;;;7.25;5.40;;;;;;;35.93;28.31;99132.84;5091728;28;20514;-77
2023/07/06 10:51:05;;;;;;;9.88;8.90;;;;;;;36.05;28.73;99133.88;5069175;28;20032;-77
2023/07/06 10:53:40;;;;;;;6.10;5.47;;;;;;;36.26;28.32;99110.44;5074698;28;20105;-77
2023/07/06 10:56:11;;;;;;;6.40;5.50;;;;;;;36.47;28.39;99128.59;5083338;28;20081;-76
2023/07/06 10:58:50;;;;;;;8.32;6.35;;;;;;;36.42;28.32;99123.38;5088219;28;20041;-76
2023/07/06 11:01:19;;;;;;;7.28;5.47;;;;;;;36.63;27.53;99110.06;5081510;28;20106;-76
2023/07/06 11:03:46;;;;;;;7.93;5.20;;;;;;;36.74;27.42;99122.09;5089685;28;20044;-76
2023/07/06 11:06:36;;;;;;;6.53;5.93;;;;;;;36.78;27.01;99111.97;5073084;28;20017;-77
2023/07/06 11:09:03;;;;;;;;;;;;;;;36.71;27.35;99103.56;5071284;28;20033;-77
2023/07/06 11:11:32;;;;;;;4.95;4.47;;;;;;;36.69;27.54;99083.88;5070749;28;19905;-77
2023/07/06 11:14:34;;;;;;;6.70;6.00;;;;;;;36.63;26.98;99048.75;5071858;28;20366;-77
2023/07/06 11:17:18;;;;;;;6.15;5.15;;;;;;;37.06;27.56;99100.72;5061796;28;20173;-75
2023/07/06 11:19:59;;;;;;;7.57;6.75;;;;;;;37.17;27.19;99110.00;5072101;28;20067;-76
2023/07/06 11:22:25;;;;;;;11.70;5.88;;;;;;;37.12;26.97;99085.50;5071259;28;20059;-76
2023/07/06 11:24:59;;;;;;;8.35;5.68;;;;;;;37.05;26.73;99074.34;5082813;28;20058;-76
2023/07/06 11:27:30;;;;;;;8.73;5.57;;;;;;;37.09;26.71;99082.66;5076129;28;20039;-76
2023/07/06 11:30:15;;;;;;;7.20;5.70;;;;;;;37.22;26.36;99095.94;5072392;28;20432;-76
2023/07/06 11:32:53;;;;;;;6.78;5.07;;;;;;;37.36;26.36;99081.63;5075994;28;20028;-78
2023/07/06 11:35:30;;;;;;;8.98;4.75;;;;;;;37.48;26.10;99081.44;5073849;28;20028;-77
2023/07/06 11:38:12;;;;;;;8.65;5.68;;;;;;;37.57;25.48;99081.19;5068359;28;20033;-78
2023/07/06 11:41:15;;;;;;;8.07;5.60;;;;;;;37.71;25.94;99086.16;5073815;28;20021;-76
2023/07/06 11:44:08;;;;;;;7.65;5.45;;;;;;;37.72;25.71;99079.47;5068642;28;20035;-77
2023/07/06 11:46:44;;;;;;;7.90;4.97;;;;;;;37.53;25.24;99077.59;5069930;28;20050;-78
2023/07/06 11:49:47;;;;;;;11.10;6.90;;;;;;;37.43;25.87;99051.47;5070829;28;20103;-77